Jackson County Reynolds Field Jackson US
ICAO: KJXN
IATA: JXN
Category: Medium
Scheduled Services: No

Elevation: 1001 ft
TransAlt. 18000 ft.

Airport Communications:
LANSING APP/DEP:127.3
ATIS:125.725
CTAF:120.7
GND/CLNC DEL:121.9
LANSING RDO:122.2
TWR:120.7
UNICOM:122.95

KJXN Zoom In..

Runways:

(A) RW 06 length 5349 ft width 150 ft
---- / hdg 56

(B) RW 14 length 4000 ft width 100 ft
---- / hdg 138

(C) RW 24 length 5349 ft width 150 ft
ILS 109.10 / hdg 236

(D) RW 32 length 4000 ft width 100 ft
---- / hdg 318

Location; KJXN
Day. 05 / Time. 17.56 Zulu
* Altimeter: 30.13
* Temperature: 22° c. 71.6°f.
* Wind from: 230° Speed 07 kn.
Dewpoint: 11° c.
Visibility: 10 Statute Miles.
Clouds: Broken 6000 ft.

KJXN 051756Z 23007KT 10SM BKN060 22/11 A3013 RMK AO2 SLP201 T02170106 10217 20117 50004

Going to: --> -->


Wind From 230°
Speed 07 kn.

 
 
jpsmedia worldairports.se 2020   terms of use